メインページ
METAR-TAF:

METAR-TAF

空港 :

アスンシオン, パラグアイ

シルビオ・ペッティロッシ国際空港

緯度: 25-16S, 経度: 057-38W, 海抜: 101m

現時点の気象観測

当レポートは1時間2分前の05:00(UTC)に作成
変向風 3kt
気温 23°C
湿度 78%
気圧 1012 hPa
視程: 9000m

METAR: SGAS 250500Z VRB03KT 9000 NSC 23/19 Q1012

時間: 03:02 (06:02 UTC)

予報

当レポートは1時間2分前の05:00(UTC)に作成
予報は25日の 06時(UTC)から 26日の 06時(UTC)まで有効
変向風 3kt
視程10km以上
1,500メートル以下は雲なし、積乱雲なし

TAF: SGAS 250500Z 2506/2606 VRB03KT CAVOK TX35/2518Z TN22/2509Z

4,000以上の空港の気象観測と天気予報(METAR報とTAF報)

利用可能な観測所は地図上に黄色い丸と赤い丸で示す。

丸の上にカーソルを重ねると観測所名を参照できる。

次にクリックすると気象観測と天気予報を参照できる。

マップの切り替え:黒色「×」印の緑ボタンをクリックして拡大、「-」印の緑ボタンをクリックして縮小、緑色の三角印をクリックして隣りの地図に切り替え


METAR-TAF: